Aeroporto :
LOGIN :

Iscrizione | Disclaimer

   EN    FR    IT 

 










Sommario :    VFR   VFR Marginale   IFR   IFR Intensivo   IFR Molto Intensivo
Visibilità : 
Base nubi : 
>= 8 km
>= 3000ft
5 / 8 km
1000 / 3000 ft
1500m / 5 km
500 / 1000 ft
800 / 1500m
200 / 500 ft
< 800m
< 200 ft
Simboli :   Temporali  Nebbia  Neve Forte  Precipitazioni Forti  Vento > 20 kt
SIGMETs :   Varie  Temporali  Ghiacco  Turbolenza  Onda orograficha  Ceneri Vulcaniche






- Altitudine del aeroporto : 1071 ft
- Codice IATA : LWO


UKLL - L'viv

ULTIMO METAR :
  • 220442Z 17001MPS CAVOK 07/06 Q1019 R13/D NOSIG

METARs OBSOLETI :
  • 220438Z 17001MPS 9999 3600S BR NSC 06/06 Q1019 R13/D NOSIG
  • 220421Z 15001MPS 9999 1900S BR NSC 07/06 Q1019 R13/D NOSIG
  • 220405Z 00000MPS 9999 0900S R31/1100 PRFG NSC 07/06 Q1019 R31/CLRD// NOSIG
  • 220400Z 00000MPS CAVOK 07/06 Q1019 R31/CLRD// NOSIG
  • 220330Z VRB01MPS CAVOK 07/07 Q1019 R31/CLRD// NOSIG
  • 220300Z 16001MPS CAVOK 08/07 Q1019 R31/CLRD// NOSIG
  • 220230Z 14001MPS CAVOK 07/06 Q1019 R31/D NOSIG
  • 220200Z 15001MPS CAVOK 08/07 Q1019 R31/D NOSIG

TAF AMD TAF UKLL
Valido dal 22 a 04 ore il 23 a 00 ore UTC


220407Z 2204/2224 VRB01MPS 9999 BKN033
TEMPO 2204/2207 0500 FG VV002
TEMPO 2216/2221 2100 BR FU



MetMap, La meteo Aeronautica in un colpo d'occhio ! - Copyright ORBIFLY Dicembre 2007 - Disclaimer

ORBIFLY MET'MAP TEAM :

Programmazione e sviluppo : Alexandra Zaïnal
Concezione : Baudouin d'Aumeries
Aiuto per la programmazione : Marc-Olivier Méhu
Supporto tecnico e logistico : Manuel Goepfert
Aiuto per la traduzione : Arnaldo La Scala

Contatto : metmap@orbifly.com




FONTI E CREDITI :

   NOAA